createdAt,value
2023-04-21T00:01:18.417Z,92.60
2023-04-21T00:04:09.963Z,92.60
2023-04-21T00:07:01.593Z,92.70
2023-04-21T00:09:50.371Z,92.80
2023-04-21T00:12:42.903Z,92.90
2023-04-21T00:15:32.356Z,92.90
2023-04-21T00:18:21.150Z,92.80
2023-04-21T00:21:11.448Z,92.80
2023-04-21T00:24:00.403Z,93.00
2023-04-21T00:26:49.204Z,93.10
2023-04-21T00:29:38.949Z,93.20
2023-04-21T00:32:27.701Z,93.50
2023-04-21T00:35:16.662Z,93.40
2023-04-21T00:38:06.944Z,93.50
2023-04-21T00:40:55.983Z,93.60
2023-04-21T00:44:02.407Z,93.60
2023-04-21T00:46:53.248Z,93.80
2023-04-21T00:49:46.419Z,94.00
2023-04-21T00:52:36.081Z,94.00
2023-04-21T00:55:26.296Z,94.10
2023-04-21T00:58:15.389Z,94.00
2023-04-21T01:01:05.656Z,94.30
2023-04-21T01:03:54.733Z,94.40
2023-04-21T01:06:44.456Z,94.30
2023-04-21T01:09:33.721Z,94.20
2023-04-21T01:12:26.954Z,94.30
2023-04-21T01:15:16.906Z,94.40
2023-04-21T01:18:05.835Z,94.40
2023-04-21T01:20:55.094Z,94.40
2023-04-21T01:23:45.504Z,94.60
2023-04-21T01:26:34.405Z,94.80
2023-04-21T01:29:23.656Z,94.90
2023-04-21T01:32:15.034Z,94.90
2023-04-21T01:35:04.230Z,94.70
2023-04-21T01:37:53.080Z,94.90
2023-04-21T01:40:43.849Z,94.90
2023-04-21T01:43:32.627Z,95.10
2023-04-21T01:46:21.836Z,95.60
2023-04-21T01:49:10.753Z,95.30
2023-04-21T01:51:59.853Z,95.30
2023-04-21T01:54:48.951Z,95.40
2023-04-21T01:57:39.466Z,95.40
2023-04-21T02:00:28.730Z,95.80
2023-04-21T02:03:18.061Z,95.80
2023-04-21T02:06:08.344Z,95.90
2023-04-21T02:08:57.016Z,95.90
2023-04-21T02:11:45.689Z,96.20
2023-04-21T02:14:35.849Z,96.20
2023-04-21T02:17:28.117Z,96.50
2023-04-21T02:20:18.547Z,96.30
2023-04-21T02:23:08.657Z,96.40
2023-04-21T02:25:57.664Z,96.40
2023-04-21T02:28:46.581Z,96.40
2023-04-21T02:31:53.745Z,96.50
2023-04-21T02:34:47.770Z,96.70
2023-04-21T02:37:36.833Z,96.70
2023-04-21T02:40:29.503Z,96.80
2023-04-21T02:43:18.293Z,96.90
2023-04-21T02:46:10.743Z,97.00
2023-04-21T02:49:01.196Z,96.90
2023-04-21T02:51:49.842Z,97.00
2023-04-21T02:54:38.677Z,97.00
2023-04-21T02:57:27.627Z,97.30
2023-04-21T03:00:16.893Z,97.20
2023-04-21T03:03:05.917Z,97.40
2023-04-21T03:05:59.680Z,97.30
2023-04-21T03:08:48.506Z,97.60
2023-04-21T03:11:37.848Z,97.80
2023-04-21T03:14:26.544Z,97.50
2023-04-21T03:17:15.172Z,97.30
2023-04-21T03:20:08.101Z,97.60
2023-04-21T03:22:58.277Z,97.40
2023-04-21T03:25:47.229Z,97.30
2023-04-21T03:28:36.081Z,97.30
2023-04-21T03:31:24.914Z,97.20
2023-04-21T03:34:13.521Z,97.60
2023-04-21T03:37:02.377Z,97.60
2023-04-21T03:39:54.992Z,97.70
2023-04-21T03:42:44.154Z,97.80
2023-04-21T03:45:32.827Z,97.80
2023-04-21T03:48:21.544Z,97.80
2023-04-21T03:51:10.164Z,97.60
2023-04-21T03:53:58.888Z,97.40
2023-04-21T03:56:48.907Z,97.50
2023-04-21T03:59:37.484Z,97.50
2023-04-21T04:02:26.428Z,97.80
2023-04-21T04:05:15.278Z,97.90
2023-04-21T04:08:04.522Z,98.40
2023-04-21T04:10:53.148Z,98.30
2023-04-21T04:13:46.156Z,98.40
2023-04-21T04:16:35.702Z,98.30
2023-04-21T04:19:24.479Z,98.10
2023-04-21T04:22:13.327Z,98.20
2023-04-21T04:25:02.395Z,97.90
2023-04-21T04:27:51.001Z,97.90
2023-04-21T04:30:42.048Z,97.70
2023-04-21T04:33:30.899Z,97.70
2023-04-21T04:36:20.213Z,97.50
2023-04-21T04:39:10.365Z,97.60
2023-04-21T04:41:59.525Z,97.60
2023-04-21T04:44:48.404Z,97.60
2023-04-21T04:47:38.746Z,97.50
2023-04-21T04:50:27.560Z,98.50
2023-04-21T04:53:16.217Z,97.80
2023-04-21T04:56:05.059Z,97.10
2023-04-21T04:58:53.792Z,97.40
2023-04-21T05:01:43.406Z,97.40
2023-04-21T05:04:34.980Z,97.10
2023-04-21T05:07:23.992Z,97.00
2023-04-21T05:10:12.638Z,97.00
2023-04-21T05:13:01.351Z,96.80
2023-04-21T05:15:50.011Z,97.40
2023-04-21T05:18:39.153Z,96.70
2023-04-21T05:21:30.047Z,96.60
2023-04-21T05:24:23.375Z,96.10
2023-04-21T05:27:12.177Z,96.20
2023-04-21T05:30:01.082Z,95.60
2023-04-21T05:32:49.844Z,94.90
2023-04-21T05:35:38.876Z,93.60
2023-04-21T05:38:28.988Z,92.20
2023-04-21T05:41:17.766Z,90.90
2023-04-21T05:44:06.624Z,90.60
2023-04-21T05:46:55.884Z,90.50
2023-04-21T05:49:50.426Z,91.20
2023-04-21T05:52:39.618Z,92.10
2023-04-21T05:55:29.863Z,92.30
2023-04-21T05:58:18.668Z,92.70
2023-04-21T06:01:07.640Z,92.60
2023-04-21T06:03:56.847Z,92.90
2023-04-21T06:06:45.657Z,93.00
2023-04-21T06:09:34.315Z,92.70
2023-04-21T06:12:24.422Z,92.40
2023-04-21T06:15:13.345Z,92.20
2023-04-21T06:18:05.332Z,92.30
2023-04-21T06:20:54.868Z,92.20
2023-04-21T06:23:44.021Z,91.80
2023-04-21T06:26:32.690Z,92.00
2023-04-21T06:29:22.905Z,91.90
2023-04-21T06:32:12.656Z,91.80
2023-04-21T06:35:01.675Z,91.70
2023-04-21T06:37:50.657Z,90.10
2023-04-21T06:40:39.669Z,89.50
2023-04-21T06:43:28.426Z,90.10
2023-04-21T06:46:19.033Z,89.60
2023-04-21T06:49:07.892Z,88.40
2023-04-21T06:51:56.640Z,87.70
2023-04-21T06:54:45.547Z,85.30
2023-04-21T06:57:34.937Z,85.40
2023-04-21T07:00:23.891Z,82.60
2023-04-21T07:03:14.369Z,82.10
2023-04-21T07:06:03.419Z,80.40
2023-04-21T07:08:52.262Z,79.30
2023-04-21T07:11:41.173Z,78.50
2023-04-21T07:14:30.135Z,78.80
2023-04-21T07:17:18.944Z,77.80
2023-04-21T07:20:10.671Z,76.70
2023-04-21T07:22:59.563Z,77.30
2023-04-21T07:25:48.349Z,76.50
2023-04-21T07:28:37.182Z,73.20
2023-04-21T07:31:26.154Z,72.60
2023-04-21T07:34:15.527Z,72.80
2023-04-21T07:37:05.866Z,71.50
2023-04-21T07:39:54.831Z,72.00
2023-04-21T07:42:43.509Z,71.80
2023-04-21T07:45:32.506Z,71.60
2023-04-21T07:48:21.200Z,70.90
2023-04-21T07:51:09.918Z,70.10
2023-04-21T07:54:02.955Z,70.60
2023-04-21T07:56:51.759Z,69.70
2023-04-21T07:59:40.789Z,70.40
2023-04-21T08:02:29.680Z,67.40
2023-04-21T08:05:18.623Z,68.60
2023-04-21T08:08:07.833Z,66.80
2023-04-21T08:10:57.988Z,66.50
2023-04-21T08:13:46.656Z,64.60
2023-04-21T08:16:35.921Z,64.40
2023-04-21T08:19:24.647Z,62.20
2023-04-21T08:22:14.838Z,62.00
2023-04-21T08:25:03.951Z,60.90
2023-04-21T08:27:54.005Z,59.90
2023-04-21T08:30:43.360Z,59.00
2023-04-21T08:33:32.277Z,57.80
2023-04-21T08:36:29.006Z,58.10
2023-04-21T08:39:18.945Z,57.40
2023-04-21T08:42:09.190Z,58.70
2023-04-21T08:44:59.227Z,56.90
2023-04-21T08:47:50.055Z,56.30
2023-04-21T08:50:40.179Z,56.10
2023-04-21T08:53:29.651Z,56.40
2023-04-21T08:56:18.605Z,55.50
2023-04-21T08:59:07.462Z,56.00
2023-04-21T09:02:11.242Z,56.30
2023-04-21T09:05:00.324Z,56.40
2023-04-21T09:07:49.621Z,56.40
2023-04-21T09:10:44.953Z,56.60
2023-04-21T09:13:37.957Z,55.60
2023-04-21T09:16:33.251Z,55.30
2023-04-21T09:19:23.560Z,53.80
2023-04-21T09:22:16.568Z,54.00
2023-04-21T09:25:05.922Z,54.80
2023-04-21T09:27:56.169Z,53.40
2023-04-21T09:30:45.306Z,52.60
2023-04-21T09:33:45.745Z,52.40
2023-04-21T09:36:39.902Z,51.60
2023-04-21T09:39:43.071Z,49.40
2023-04-21T09:42:39.134Z,49.40
2023-04-21T09:45:39.746Z,50.60
2023-04-21T09:48:33.310Z,49.50
2023-04-21T09:51:40.477Z,49.20
2023-04-21T09:54:35.365Z,49.10
2023-04-21T09:57:28.286Z,47.30
2023-04-21T10:00:19.086Z,46.00
2023-04-21T10:03:12.503Z,46.10
2023-04-21T10:06:02.183Z,46.60
2023-04-21T10:08:52.124Z,46.20
2023-04-21T10:11:43.013Z,46.50
2023-04-21T10:14:31.955Z,45.90
2023-04-21T10:17:25.839Z,46.40
2023-04-21T10:20:17.351Z,45.80
2023-04-21T10:23:06.418Z,45.60
2023-04-21T10:25:55.967Z,46.20
2023-04-21T10:28:48.091Z,45.90
2023-04-21T10:31:39.280Z,45.50
2023-04-21T10:34:35.493Z,44.10
2023-04-21T10:37:24.326Z,43.70
2023-04-21T10:43:49.259Z,42.90
2023-04-21T10:46:40.307Z,42.30
2023-04-21T10:49:31.274Z,44.20
2023-04-21T10:52:21.607Z,42.50
2023-04-21T10:55:12.846Z,39.40
2023-04-21T10:58:04.352Z,39.70
2023-04-21T11:00:59.343Z,40.00
2023-04-21T11:03:48.467Z,40.00
2023-04-21T11:06:37.719Z,39.10
2023-04-21T11:09:29.582Z,39.40
2023-04-21T11:12:19.736Z,40.00
2023-04-21T11:15:10.879Z,38.90
2023-04-21T11:18:01.359Z,39.10
2023-04-21T11:20:50.721Z,39.40
2023-04-21T11:23:42.512Z,39.20
2023-04-21T11:26:32.733Z,38.10
2023-04-21T11:29:23.251Z,37.80
2023-04-21T11:32:13.991Z,39.00
2023-04-21T11:35:08.528Z,37.10
2023-04-21T11:37:57.387Z,38.00
2023-04-21T11:40:49.314Z,37.20
2023-04-21T11:43:38.234Z,37.20
2023-04-21T11:46:28.967Z,35.60
2023-04-21T11:49:18.572Z,34.80
2023-04-21T11:52:08.774Z,34.20
2023-04-21T11:55:00.241Z,34.20
2023-04-21T11:57:51.327Z,33.10
2023-04-21T12:00:40.825Z,32.30
2023-04-21T12:03:30.113Z,32.40
2023-04-21T12:06:22.847Z,33.20
2023-04-21T12:09:19.002Z,34.50
2023-04-21T12:12:08.470Z,35.10
2023-04-21T12:14:57.253Z,35.90
2023-04-21T12:17:46.709Z,38.70
2023-04-21T12:20:36.073Z,41.20
2023-04-21T12:23:24.881Z,42.60
2023-04-21T12:26:15.448Z,43.10
2023-04-21T12:29:04.150Z,43.40
2023-04-21T12:31:53.149Z,43.90
2023-04-21T12:34:43.336Z,43.90
2023-04-21T12:37:32.299Z,45.20
2023-04-21T12:40:21.289Z,44.90
2023-04-21T12:43:11.923Z,45.60
2023-04-21T12:46:01.473Z,45.80
2023-04-21T12:48:52.411Z,46.00
2023-04-21T12:51:41.256Z,46.60
2023-04-21T12:54:30.018Z,47.00
2023-04-21T12:57:18.786Z,47.20
2023-04-21T13:00:12.984Z,47.50
2023-04-21T13:03:02.253Z,47.70
2023-04-21T13:05:51.204Z,47.70
2023-04-21T13:08:39.960Z,48.50
2023-04-21T13:11:29.220Z,48.00
2023-04-21T13:14:17.988Z,47.60
2023-04-21T13:17:08.242Z,48.20
2023-04-21T13:19:57.218Z,48.40
2023-04-21T13:22:46.154Z,48.40
2023-04-21T13:25:34.941Z,47.90
2023-04-21T13:28:24.227Z,49.00
2023-04-21T13:31:14.650Z,48.50
2023-04-21T13:34:04.960Z,48.70
2023-04-21T13:36:53.917Z,48.90
2023-04-21T13:39:42.697Z,49.40
2023-04-21T13:42:31.448Z,49.20
2023-04-21T13:45:20.391Z,49.00
2023-04-21T13:48:09.161Z,49.10
2023-04-21T13:50:59.212Z,48.60
2023-04-21T13:53:48.121Z,48.80
2023-04-21T13:56:37.695Z,48.90
2023-04-21T13:59:26.867Z,48.70
2023-04-21T14:02:15.788Z,48.70
2023-04-21T14:05:05.412Z,48.80
2023-04-21T14:07:55.919Z,49.50
2023-04-21T14:10:44.760Z,49.30
2023-04-21T14:13:41.893Z,49.80
2023-04-21T14:16:34.251Z,49.20
2023-04-21T14:19:23.305Z,49.20
2023-04-21T14:22:12.496Z,49.60
2023-04-21T14:25:02.734Z,49.90
2023-04-21T14:27:51.507Z,48.70
2023-04-21T14:30:42.725Z,49.30
2023-04-21T14:33:33.337Z,49.50
2023-04-21T14:36:22.494Z,49.90
2023-04-21T14:39:12.320Z,49.40
2023-04-21T14:42:03.072Z,49.80
2023-04-21T14:44:51.891Z,49.90
2023-04-21T14:47:40.849Z,49.00
2023-04-21T14:50:29.752Z,47.90
2023-04-21T14:53:18.956Z,49.10
2023-04-21T14:56:07.971Z,49.10
2023-04-21T14:58:58.202Z,49.20
2023-04-21T15:01:47.670Z,49.10
2023-04-21T15:04:36.847Z,49.80
2023-04-21T15:07:25.786Z,49.90
2023-04-21T15:10:15.021Z,49.90
2023-04-21T15:13:04.020Z,49.90
2023-04-21T15:15:54.269Z,50.50
2023-04-21T15:18:42.993Z,50.30
2023-04-21T15:21:32.479Z,50.50
2023-04-21T15:24:21.390Z,50.90
2023-04-21T15:27:11.040Z,51.20
2023-04-21T15:29:59.931Z,51.30
2023-04-21T15:32:50.074Z,51.60
2023-04-21T15:35:38.773Z,51.60
2023-04-21T15:38:27.859Z,51.70
2023-04-21T15:41:17.725Z,51.70
2023-04-21T15:44:06.861Z,52.10
2023-04-21T15:46:55.834Z,52.00
2023-04-21T15:49:46.061Z,52.20
2023-04-21T15:52:38.070Z,52.60
2023-04-21T15:55:29.305Z,53.20
2023-04-21T15:58:17.951Z,53.00
2023-04-21T16:01:07.122Z,53.50
2023-04-21T16:03:56.305Z,54.30
2023-04-21T16:06:46.430Z,54.50
2023-04-21T16:09:35.189Z,54.00
2023-04-21T16:12:24.182Z,54.10
2023-04-21T16:15:23.690Z,54.50
2023-04-21T16:18:16.607Z,54.40
2023-04-21T16:21:05.537Z,54.50
2023-04-21T16:23:55.944Z,54.70
2023-04-21T16:26:44.825Z,54.70
2023-04-21T16:29:34.004Z,55.30
2023-04-21T16:32:23.107Z,55.10
2023-04-21T16:35:12.384Z,55.00
2023-04-21T16:38:01.249Z,55.20
2023-04-21T16:40:51.588Z,55.50
2023-04-21T16:43:40.430Z,55.50
2023-04-21T16:46:29.706Z,55.20
2023-04-21T16:49:19.267Z,55.50
2023-04-21T16:52:08.061Z,55.60
2023-04-21T16:54:57.193Z,55.50
2023-04-21T16:57:47.257Z,55.70
2023-04-21T17:00:37.353Z,55.60
2023-04-21T17:03:27.586Z,55.50
2023-04-21T17:06:21.400Z,55.90
2023-04-21T17:09:11.187Z,55.80
2023-04-21T17:12:00.160Z,56.30
2023-04-21T17:14:50.465Z,56.30
2023-04-21T17:17:43.510Z,56.70
2023-04-21T17:20:32.696Z,56.60
2023-04-21T17:23:21.690Z,56.40
2023-04-21T17:26:13.263Z,56.80
2023-04-21T17:29:04.448Z,56.60
2023-04-21T17:31:55.039Z,57.00
2023-04-21T17:34:44.015Z,57.10
2023-04-21T17:37:33.151Z,57.10
2023-04-21T17:40:22.881Z,57.00
2023-04-21T17:43:14.516Z,57.50
2023-04-21T17:46:03.468Z,57.70
2023-04-21T17:48:53.567Z,57.70
2023-04-21T17:51:42.299Z,57.80
2023-04-21T17:54:31.078Z,58.30
2023-04-21T17:57:19.786Z,58.20
2023-04-21T18:00:11.904Z,58.30
2023-04-21T18:03:00.739Z,58.40
2023-04-21T18:05:51.463Z,58.40
2023-04-21T18:08:40.366Z,58.80
2023-04-21T18:11:29.496Z,59.20
2023-04-21T18:14:18.724Z,59.00
2023-04-21T18:17:07.644Z,59.20
2023-04-21T18:19:56.397Z,59.20
2023-04-21T18:22:47.530Z,59.80
2023-04-21T18:25:42.447Z,60.00
2023-04-21T18:28:32.612Z,59.70
2023-04-21T18:31:26.293Z,60.10
2023-04-21T18:34:16.665Z,60.10
2023-04-21T18:37:05.526Z,60.50
2023-04-21T18:39:55.729Z,60.60
2023-04-21T18:42:44.660Z,61.40
2023-04-21T18:45:34.019Z,61.00
2023-04-21T18:48:22.859Z,60.80
2023-04-21T18:51:14.146Z,61.00
2023-04-21T18:54:04.763Z,61.10
2023-04-21T18:56:55.200Z,61.40
2023-04-21T18:59:44.216Z,61.20
2023-04-21T19:02:33.505Z,61.80
2023-04-21T19:05:22.573Z,62.10
2023-04-21T19:08:13.869Z,61.60
2023-04-21T19:11:04.646Z,61.80
2023-04-21T19:13:55.099Z,61.80
2023-04-21T19:16:43.940Z,62.20
2023-04-21T19:19:33.035Z,62.30
2023-04-21T19:22:22.392Z,62.50
2023-04-21T19:25:12.522Z,62.60
2023-04-21T19:28:03.228Z,62.60
2023-04-21T19:30:53.512Z,62.60
2023-04-21T19:33:42.367Z,62.90
2023-04-21T19:36:31.527Z,63.40
2023-04-21T19:39:20.387Z,63.40
2023-04-21T19:42:10.056Z,63.80
2023-04-21T19:44:58.838Z,63.70
2023-04-21T19:47:49.512Z,64.40
2023-04-21T19:50:38.841Z,63.90
2023-04-21T19:53:27.776Z,64.20
2023-04-21T19:56:16.465Z,64.30
2023-04-21T19:59:05.785Z,65.20
2023-04-21T20:01:54.906Z,64.80
2023-04-21T20:04:45.428Z,65.00
2023-04-21T20:07:34.305Z,65.00
2023-04-21T20:10:23.156Z,66.20
2023-04-21T20:13:13.227Z,65.40
2023-04-21T20:16:02.343Z,66.90
2023-04-21T20:18:51.378Z,65.80
2023-04-21T20:21:42.558Z,65.50
2023-04-21T20:24:31.208Z,66.10
2023-04-21T20:27:20.780Z,66.40
2023-04-21T20:30:10.441Z,66.70
2023-04-21T20:32:59.314Z,66.80
2023-04-21T20:35:49.593Z,66.90
2023-04-21T20:38:39.989Z,67.10
2023-04-21T20:41:29.503Z,67.50
2023-04-21T20:44:20.918Z,67.80
2023-04-21T20:47:15.053Z,68.50
2023-04-21T20:50:04.679Z,68.80
2023-04-21T20:52:54.101Z,69.40
2023-04-21T20:55:44.233Z,69.30
2023-04-21T20:58:33.208Z,69.50
2023-04-21T21:01:23.676Z,69.40
2023-04-21T21:04:13.598Z,69.90
2023-04-21T21:07:02.638Z,70.20
2023-04-21T21:09:51.782Z,70.60
2023-04-21T21:12:45.315Z,70.70
2023-04-21T21:15:34.140Z,71.30
2023-04-21T21:18:22.773Z,71.20
2023-04-21T21:24:04.026Z,70.70
2023-04-21T21:26:53.120Z,71.90
2023-04-21T21:29:44.494Z,71.90
2023-04-21T21:32:33.749Z,71.70
2023-04-21T21:35:22.620Z,72.30
2023-04-21T21:38:11.865Z,72.70
2023-04-21T21:41:01.073Z,72.50
2023-04-21T21:43:49.856Z,73.10
2023-04-21T21:46:40.574Z,73.50
2023-04-21T21:49:29.599Z,73.20
2023-04-21T21:52:18.377Z,73.40
2023-04-21T21:55:08.187Z,74.20
2023-04-21T21:57:57.205Z,74.50
2023-04-21T22:00:51.709Z,74.60
2023-04-21T22:03:45.893Z,74.90
2023-04-21T22:06:36.116Z,75.00
2023-04-21T22:09:24.792Z,75.40
2023-04-21T22:12:14.274Z,75.30
2023-04-21T22:15:03.339Z,75.30
2023-04-21T22:17:52.196Z,75.30
2023-04-21T22:20:42.747Z,75.80
2023-04-21T22:23:32.124Z,75.20
2023-04-21T22:26:21.119Z,75.30
2023-04-21T22:29:10.053Z,75.80
2023-04-21T22:31:59.237Z,75.70
2023-04-21T22:34:48.064Z,75.90
2023-04-21T22:37:38.319Z,75.70
2023-04-21T22:40:31.051Z,76.40
2023-04-21T22:43:19.755Z,77.00
2023-04-21T22:46:08.602Z,76.40
2023-04-21T22:48:57.431Z,77.40
2023-04-21T22:51:47.358Z,76.60
2023-04-21T22:54:37.744Z,78.10
2023-04-21T22:57:27.024Z,77.80
2023-04-21T23:00:17.229Z,77.50
2023-04-21T23:03:06.091Z,77.80
2023-04-21T23:05:54.993Z,78.50
2023-04-21T23:08:43.653Z,78.30
2023-04-21T23:11:34.044Z,79.20
2023-04-21T23:14:22.724Z,79.20
2023-04-21T23:17:11.594Z,79.70
2023-04-21T23:20:02.438Z,79.60
2023-04-21T23:22:51.953Z,79.90
2023-04-21T23:25:40.865Z,80.20
2023-04-21T23:28:30.912Z,80.20
2023-04-21T23:31:19.743Z,80.40
2023-04-21T23:34:08.452Z,80.80
2023-04-21T23:36:57.501Z,80.90
2023-04-21T23:39:46.204Z,81.40
2023-04-21T23:42:34.815Z,81.80
2023-04-21T23:45:24.938Z,81.80
2023-04-21T23:48:13.695Z,82.00
2023-04-21T23:51:02.696Z,82.20
2023-04-21T23:53:55.016Z,83.00
2023-04-21T23:56:43.644Z,83.10
2023-04-21T23:59:32.376Z,83.60
